sensor_id;sensor_type;location;lat;lon;timestamp;P1;durP1;ratioP1;P2;durP2;ratioP2
70667;SDS011;58242;51.250;-1.118;2024-02-15T00:01:03;3.25;;;3.15;;
70667;SDS011;58242;51.250;-1.118;2024-02-15T00:03:29;3.60;;;3.50;;
70667;SDS011;58242;51.250;-1.118;2024-02-15T00:05:56;3.55;;;3.35;;
70667;SDS011;58242;51.250;-1.118;2024-02-15T00:08:22;3.65;;;3.35;;
70667;SDS011;58242;51.250;-1.118;2024-02-15T00:10:49;3.50;;;3.30;;
70667;SDS011;58242;51.250;-1.118;2024-02-15T00:13:18;3.45;;;3.33;;
70667;SDS011;58242;51.250;-1.118;2024-02-15T00:15:44;3.40;;;3.30;;
70667;SDS011;58242;51.250;-1.118;2024-02-15T00:18:13;3.80;;;3.60;;
70667;SDS011;58242;51.250;-1.118;2024-02-15T00:20:38;3.30;;;3.10;;
70667;SDS011;58242;51.250;-1.118;2024-02-15T00:23:04;2.80;;;2.70;;
70667;SDS011;58242;51.250;-1.118;2024-02-15T00:25:31;3.25;;;3.08;;
70667;SDS011;58242;51.250;-1.118;2024-02-15T00:27:57;3.63;;;3.33;;
70667;SDS011;58242;51.250;-1.118;2024-02-15T00:30:22;3.10;;;3.00;;
70667;SDS011;58242;51.250;-1.118;2024-02-15T00:32:47;3.30;;;3.10;;
70667;SDS011;58242;51.250;-1.118;2024-02-15T00:35:13;2.50;;;2.50;;
70667;SDS011;58242;51.250;-1.118;2024-02-15T00:37:42;2.28;;;2.17;;
70667;SDS011;58242;51.250;-1.118;2024-02-15T00:40:07;3.00;;;2.90;;
70667;SDS011;58242;51.250;-1.118;2024-02-15T00:42:33;2.95;;;2.85;;
70667;SDS011;58242;51.250;-1.118;2024-02-15T00:44:59;2.80;;;2.70;;
70667;SDS011;58242;51.250;-1.118;2024-02-15T00:47:24;2.83;;;2.72;;
70667;SDS011;58242;51.250;-1.118;2024-02-15T00:49:49;3.10;;;3.00;;
70667;SDS011;58242;51.250;-1.118;2024-02-15T00:52:15;2.95;;;2.85;;
70667;SDS011;58242;51.250;-1.118;2024-02-15T00:54:43;2.80;;;2.67;;
70667;SDS011;58242;51.250;-1.118;2024-02-15T00:57:09;2.72;;;2.63;;
70667;SDS011;58242;51.250;-1.118;2024-02-15T00:59:34;2.80;;;2.70;;
70667;SDS011;58242;51.250;-1.118;2024-02-15T01:02:01;2.95;;;2.85;;
70667;SDS011;58242;51.250;-1.118;2024-02-15T01:04:27;3.15;;;3.05;;
70667;SDS011;58242;51.250;-1.118;2024-02-15T01:06:53;3.10;;;3.00;;
70667;SDS011;58242;51.250;-1.118;2024-02-15T01:09:18;3.30;;;3.20;;
70667;SDS011;58242;51.250;-1.118;2024-02-15T01:11:43;2.83;;;2.72;;
70667;SDS011;58242;51.250;-1.118;2024-02-15T01:14:09;2.55;;;2.47;;
70667;SDS011;58242;51.250;-1.118;2024-02-15T01:16:35;2.53;;;2.42;;
70667;SDS011;58242;51.250;-1.118;2024-02-15T01:19:02;2.60;;;2.50;;
70667;SDS011;58242;51.250;-1.118;2024-02-15T01:21:27;3.30;;;3.20;;
70667;SDS011;58242;51.250;-1.118;2024-02-15T01:23:53;2.90;;;2.80;;
70667;SDS011;58242;51.250;-1.118;2024-02-15T01:26:21;3.13;;;3.03;;
70667;SDS011;58242;51.250;-1.118;2024-02-15T01:28:46;3.03;;;2.92;;
70667;SDS011;58242;51.250;-1.118;2024-02-15T01:31:11;2.70;;;2.60;;
70667;SDS011;58242;51.250;-1.118;2024-02-15T01:33:37;2.70;;;2.60;;
70667;SDS011;58242;51.250;-1.118;2024-02-15T01:36:03;2.50;;;2.50;;
70667;SDS011;58242;51.250;-1.118;2024-02-15T01:38:29;2.67;;;2.58;;
70667;SDS011;58242;51.250;-1.118;2024-02-15T01:40:54;3.05;;;2.95;;
70667;SDS011;58242;51.250;-1.118;2024-02-15T01:43:20;2.78;;;2.67;;
70667;SDS011;58242;51.250;-1.118;2024-02-15T01:45:45;2.80;;;2.70;;
70667;SDS011;58242;51.250;-1.118;2024-02-15T01:48:12;3.03;;;2.92;;
70667;SDS011;58242;51.250;-1.118;2024-02-15T01:50:39;2.88;;;2.78;;
70667;SDS011;58242;51.250;-1.118;2024-02-15T01:53:05;2.90;;;2.80;;
70667;SDS011;58242;51.250;-1.118;2024-02-15T01:55:33;2.83;;;2.72;;
70667;SDS011;58242;51.250;-1.118;2024-02-15T01:58:00;3.03;;;2.92;;
70667;SDS011;58242;51.250;-1.118;2024-02-15T02:00:26;2.92;;;2.83;;
70667;SDS011;58242;51.250;-1.118;2024-02-15T02:02:52;2.50;;;2.50;;
70667;SDS011;58242;51.250;-1.118;2024-02-15T02:05:18;2.85;;;2.75;;
70667;SDS011;58242;51.250;-1.118;2024-02-15T02:07:44;2.97;;;2.88;;
70667;SDS011;58242;51.250;-1.118;2024-02-15T02:10:09;2.92;;;2.83;;
70667;SDS011;58242;51.250;-1.118;2024-02-15T02:12:36;2.50;;;2.45;;
70667;SDS011;58242;51.250;-1.118;2024-02-15T02:15:04;2.70;;;2.60;;
70667;SDS011;58242;51.250;-1.118;2024-02-15T02:17:31;3.15;;;3.05;;
70667;SDS011;58242;51.250;-1.118;2024-02-15T02:19:56;2.92;;;2.83;;
70667;SDS011;58242;51.250;-1.118;2024-02-15T02:22:22;3.00;;;2.90;;
70667;SDS011;58242;51.250;-1.118;2024-02-15T02:25:06;2.90;;;2.80;;
70667;SDS011;58242;51.250;-1.118;2024-02-15T02:27:36;2.80;;;2.70;;
70667;SDS011;58242;51.250;-1.118;2024-02-15T02:30:05;3.17;;;3.08;;
70667;SDS011;58242;51.250;-1.118;2024-02-15T02:32:39;2.90;;;2.80;;
70667;SDS011;58242;51.250;-1.118;2024-02-15T02:35:06;2.90;;;2.80;;
70667;SDS011;58242;51.250;-1.118;2024-02-15T02:37:32;2.90;;;2.80;;
70667;SDS011;58242;51.250;-1.118;2024-02-15T02:40:01;3.00;;;2.88;;
70667;SDS011;58242;51.250;-1.118;2024-02-15T02:42:28;2.70;;;2.63;;
70667;SDS011;58242;51.250;-1.118;2024-02-15T02:44:53;2.80;;;2.70;;
70667;SDS011;58242;51.250;-1.118;2024-02-15T02:47:18;3.25;;;2.95;;
70667;SDS011;58242;51.250;-1.118;2024-02-15T02:49:44;3.00;;;2.90;;
70667;SDS011;58242;51.250;-1.118;2024-02-15T02:52:09;3.05;;;2.95;;
70667;SDS011;58242;51.250;-1.118;2024-02-15T02:54:34;3.60;;;3.50;;
70667;SDS011;58242;51.250;-1.118;2024-02-15T02:57:00;3.20;;;3.10;;
70667;SDS011;58242;51.250;-1.118;2024-02-15T02:59:25;2.70;;;2.60;;
70667;SDS011;58242;51.250;-1.118;2024-02-15T03:01:51;3.05;;;2.95;;
70667;SDS011;58242;51.250;-1.118;2024-02-15T03:04:16;2.92;;;2.83;;
70667;SDS011;58242;51.250;-1.118;2024-02-15T03:06:42;2.95;;;2.85;;
70667;SDS011;58242;51.250;-1.118;2024-02-15T03:09:08;3.20;;;3.10;;
70667;SDS011;58242;51.250;-1.118;2024-02-15T03:11:34;3.22;;;3.13;;
70667;SDS011;58242;51.250;-1.118;2024-02-15T03:14:01;3.30;;;3.20;;
70667;SDS011;58242;51.250;-1.118;2024-02-15T03:16:29;2.90;;;2.80;;
70667;SDS011;58242;51.250;-1.118;2024-02-15T03:18:55;2.78;;;2.65;;
70667;SDS011;58242;51.250;-1.118;2024-02-15T03:21:20;3.20;;;3.10;;
70667;SDS011;58242;51.250;-1.118;2024-02-15T03:23:46;3.40;;;3.20;;
70667;SDS011;58242;51.250;-1.118;2024-02-15T03:26:11;3.10;;;3.00;;
70667;SDS011;58242;51.250;-1.118;2024-02-15T03:28:37;3.53;;;3.35;;
70667;SDS011;58242;51.250;-1.118;2024-02-15T03:31:03;3.13;;;3.03;;
70667;SDS011;58242;51.250;-1.118;2024-02-15T03:33:28;3.00;;;2.90;;
70667;SDS011;58242;51.250;-1.118;2024-02-15T03:35:58;2.90;;;2.80;;
70667;SDS011;58242;51.250;-1.118;2024-02-15T03:38:26;3.00;;;2.90;;
70667;SDS011;58242;51.250;-1.118;2024-02-15T03:40:52;3.15;;;3.05;;
70667;SDS011;58242;51.250;-1.118;2024-02-15T03:43:17;3.33;;;3.20;;
70667;SDS011;58242;51.250;-1.118;2024-02-15T03:45:42;3.40;;;3.30;;
70667;SDS011;58242;51.250;-1.118;2024-02-15T03:48:09;3.67;;;3.47;;
70667;SDS011;58242;51.250;-1.118;2024-02-15T03:50:35;3.10;;;3.00;;
70667;SDS011;58242;51.250;-1.118;2024-02-15T03:53:00;3.60;;;3.40;;
70667;SDS011;58242;51.250;-1.118;2024-02-15T03:55:26;3.67;;;3.50;;
70667;SDS011;58242;51.250;-1.118;2024-02-15T03:57:51;3.72;;;3.53;;
70667;SDS011;58242;51.250;-1.118;2024-02-15T04:00:18;3.85;;;3.65;;
70667;SDS011;58242;51.250;-1.118;2024-02-15T04:02:46;3.30;;;3.20;;
70667;SDS011;58242;51.250;-1.118;2024-02-15T04:05:14;3.40;;;3.30;;
70667;SDS011;58242;51.250;-1.118;2024-02-15T04:07:39;3.95;;;3.75;;
70667;SDS011;58242;51.250;-1.118;2024-02-15T04:10:05;3.67;;;3.38;;
70667;SDS011;58242;51.250;-1.118;2024-02-15T04:12:31;3.58;;;3.47;;
70667;SDS011;58242;51.250;-1.118;2024-02-15T04:14:57;3.72;;;3.53;;
70667;SDS011;58242;51.250;-1.118;2024-02-15T04:17:29;4.40;;;4.10;;
70667;SDS011;58242;51.250;-1.118;2024-02-15T04:19:57;4.18;;;3.97;;
70667;SDS011;58242;51.250;-1.118;2024-02-15T04:22:23;3.85;;;3.65;;
70667;SDS011;58242;51.250;-1.118;2024-02-15T04:24:48;4.35;;;4.10;;
70667;SDS011;58242;51.250;-1.118;2024-02-15T04:27:14;4.65;;;4.25;;
70667;SDS011;58242;51.250;-1.118;2024-02-15T04:29:40;4.28;;;3.97;;
70667;SDS011;58242;51.250;-1.118;2024-02-15T04:32:09;6.18;;;5.18;;
70667;SDS011;58242;51.250;-1.118;2024-02-15T04:34:34;5.25;;;4.07;;
70667;SDS011;58242;51.250;-1.118;2024-02-15T04:37:00;4.13;;;3.92;;
70667;SDS011;58242;51.250;-1.118;2024-02-15T04:39:26;5.45;;;4.30;;
70667;SDS011;58242;51.250;-1.118;2024-02-15T04:41:55;4.53;;;4.22;;
70667;SDS011;58242;51.250;-1.118;2024-02-15T04:44:20;4.65;;;4.15;;
70667;SDS011;58242;51.250;-1.118;2024-02-15T04:46:46;5.80;;;4.88;;
70667;SDS011;58242;51.250;-1.118;2024-02-15T04:49:12;4.80;;;4.50;;
70667;SDS011;58242;51.250;-1.118;2024-02-15T04:51:39;4.50;;;4.10;;
70667;SDS011;58242;51.250;-1.118;2024-02-15T04:54:06;4.68;;;4.32;;
70667;SDS011;58242;51.250;-1.118;2024-02-15T04:56:32;4.15;;;3.88;;
70667;SDS011;58242;51.250;-1.118;2024-02-15T04:58:58;4.13;;;3.90;;
70667;SDS011;58242;51.250;-1.118;2024-02-15T05:01:23;4.75;;;4.35;;
70667;SDS011;58242;51.250;-1.118;2024-02-15T05:03:49;5.25;;;4.57;;
70667;SDS011;58242;51.250;-1.118;2024-02-15T05:06:14;7.15;;;4.95;;
70667;SDS011;58242;51.250;-1.118;2024-02-15T05:08:40;4.53;;;4.20;;
70667;SDS011;58242;51.250;-1.118;2024-02-15T05:11:09;5.83;;;4.90;;
70667;SDS011;58242;51.250;-1.118;2024-02-15T05:13:40;4.95;;;4.55;;
70667;SDS011;58242;51.250;-1.118;2024-02-15T05:16:06;5.47;;;5.00;;
70667;SDS011;58242;51.250;-1.118;2024-02-15T05:18:31;5.65;;;4.82;;
70667;SDS011;58242;51.250;-1.118;2024-02-15T05:20:56;5.45;;;5.05;;
70667;SDS011;58242;51.250;-1.118;2024-02-15T05:23:22;4.78;;;4.50;;
70667;SDS011;58242;51.250;-1.118;2024-02-15T05:25:47;4.85;;;4.45;;
70667;SDS011;58242;51.250;-1.118;2024-02-15T05:28:13;6.28;;;5.68;;
70667;SDS011;58242;51.250;-1.118;2024-02-15T05:30:38;5.75;;;5.15;;
70667;SDS011;58242;51.250;-1.118;2024-02-15T05:33:04;5.07;;;4.68;;
70667;SDS011;58242;51.250;-1.118;2024-02-15T05:35:35;5.82;;;4.82;;
70667;SDS011;58242;51.250;-1.118;2024-02-15T05:38:04;4.80;;;4.40;;
70667;SDS011;58242;51.250;-1.118;2024-02-15T05:40:31;5.65;;;5.20;;
70667;SDS011;58242;51.250;-1.118;2024-02-15T05:42:57;5.22;;;4.35;;
70667;SDS011;58242;51.250;-1.118;2024-02-15T05:47:51;4.70;;;4.30;;
70667;SDS011;58242;51.250;-1.118;2024-02-15T05:50:17;5.95;;;4.78;;
70667;SDS011;58242;51.250;-1.118;2024-02-15T05:52:45;4.38;;;4.07;;
70667;SDS011;58242;51.250;-1.118;2024-02-15T05:55:11;4.78;;;4.47;;
70667;SDS011;58242;51.250;-1.118;2024-02-15T05:57:42;4.32;;;4.13;;
70667;SDS011;58242;51.250;-1.118;2024-02-15T06:00:08;4.82;;;4.63;;
70667;SDS011;58242;51.250;-1.118;2024-02-15T06:02:34;5.65;;;4.07;;
70667;SDS011;58242;51.250;-1.118;2024-02-15T06:05:00;5.20;;;4.78;;
70667;SDS011;58242;51.250;-1.118;2024-02-15T06:07:28;5.88;;;5.43;;
70667;SDS011;58242;51.250;-1.118;2024-02-15T06:09:54;5.78;;;5.38;;
70667;SDS011;58242;51.250;-1.118;2024-02-15T06:12:19;4.93;;;4.60;;
70667;SDS011;58242;51.250;-1.118;2024-02-15T06:14:45;5.50;;;5.10;;
70667;SDS011;58242;51.250;-1.118;2024-02-15T06:17:11;6.18;;;5.43;;
70667;SDS011;58242;51.250;-1.118;2024-02-15T06:19:36;5.75;;;5.45;;
70667;SDS011;58242;51.250;-1.118;2024-02-15T06:22:02;6.57;;;5.72;;
70667;SDS011;58242;51.250;-1.118;2024-02-15T06:24:29;5.97;;;5.35;;
70667;SDS011;58242;51.250;-1.118;2024-02-15T06:26:54;5.47;;;4.97;;
70667;SDS011;58242;51.250;-1.118;2024-02-15T06:29:24;5.45;;;5.00;;
70667;SDS011;58242;51.250;-1.118;2024-02-15T06:32:11;5.22;;;4.82;;
70667;SDS011;58242;51.250;-1.118;2024-02-15T06:34:55;4.30;;;4.10;;
70667;SDS011;58242;51.250;-1.118;2024-02-15T06:37:39;5.22;;;4.82;;
70667;SDS011;58242;51.250;-1.118;2024-02-15T06:40:23;4.95;;;4.60;;
70667;SDS011;58242;51.250;-1.118;2024-02-15T06:42:48;4.38;;;4.10;;
70667;SDS011;58242;51.250;-1.118;2024-02-15T06:45:14;4.47;;;4.18;;
70667;SDS011;58242;51.250;-1.118;2024-02-15T06:47:43;4.00;;;3.80;;
70667;SDS011;58242;51.250;-1.118;2024-02-15T06:50:18;4.90;;;4.60;;
70667;SDS011;58242;51.250;-1.118;2024-02-15T06:52:43;4.70;;;4.40;;
70667;SDS011;58242;51.250;-1.118;2024-02-15T06:55:09;4.10;;;3.80;;
70667;SDS011;58242;51.250;-1.118;2024-02-15T06:57:37;5.07;;;4.67;;
70667;SDS011;58242;51.250;-1.118;2024-02-15T07:00:05;4.57;;;4.38;;
70667;SDS011;58242;51.250;-1.118;2024-02-15T07:02:36;4.82;;;4.53;;
70667;SDS011;58242;51.250;-1.118;2024-02-15T07:05:01;4.18;;;3.92;;
70667;SDS011;58242;51.250;-1.118;2024-02-15T07:09:56;4.43;;;4.18;;
70667;SDS011;58242;51.250;-1.118;2024-02-15T07:12:22;4.30;;;4.00;;
70667;SDS011;58242;51.250;-1.118;2024-02-15T07:14:47;4.25;;;4.00;;
70667;SDS011;58242;51.250;-1.118;2024-02-15T07:17:13;4.47;;;4.25;;
70667;SDS011;58242;51.250;-1.118;2024-02-15T07:19:45;3.72;;;3.53;;
70667;SDS011;58242;51.250;-1.118;2024-02-15T07:22:10;4.28;;;3.97;;
70667;SDS011;58242;51.250;-1.118;2024-02-15T07:24:36;4.07;;;3.88;;
70667;SDS011;58242;51.250;-1.118;2024-02-15T07:27:03;4.40;;;4.10;;
70667;SDS011;58242;51.250;-1.118;2024-02-15T07:29:30;4.43;;;4.22;;
70667;SDS011;58242;51.250;-1.118;2024-02-15T07:31:57;4.25;;;4.05;;
70667;SDS011;58242;51.250;-1.118;2024-02-15T07:34:24;4.10;;;3.90;;
70667;SDS011;58242;51.250;-1.118;2024-02-15T07:36:51;4.55;;;4.18;;
70667;SDS011;58242;51.250;-1.118;2024-02-15T07:39:16;3.63;;;3.53;;
70667;SDS011;58242;51.250;-1.118;2024-02-15T07:41:48;3.85;;;3.72;;
70667;SDS011;58242;51.250;-1.118;2024-02-15T07:44:14;4.30;;;4.07;;
70667;SDS011;58242;51.250;-1.118;2024-02-15T07:46:41;4.35;;;4.15;;
70667;SDS011;58242;51.250;-1.118;2024-02-15T07:49:06;3.78;;;3.53;;
70667;SDS011;58242;51.250;-1.118;2024-02-15T07:51:33;4.50;;;4.07;;
70667;SDS011;58242;51.250;-1.118;2024-02-15T07:53:58;4.45;;;4.05;;
70667;SDS011;58242;51.250;-1.118;2024-02-15T07:56:26;3.90;;;3.70;;
70667;SDS011;58242;51.250;-1.118;2024-02-15T07:58:52;3.80;;;3.58;;
70667;SDS011;58242;51.250;-1.118;2024-02-15T08:01:17;3.40;;;3.20;;
70667;SDS011;58242;51.250;-1.118;2024-02-15T08:03:46;3.20;;;3.10;;
70667;SDS011;58242;51.250;-1.118;2024-02-15T08:06:12;3.22;;;3.13;;
70667;SDS011;58242;51.250;-1.118;2024-02-15T08:08:40;3.05;;;2.95;;
70667;SDS011;58242;51.250;-1.118;2024-02-15T08:11:15;3.35;;;3.13;;
70667;SDS011;58242;51.250;-1.118;2024-02-15T08:13:50;3.17;;;3.08;;
70667;SDS011;58242;51.250;-1.118;2024-02-15T08:16:19;3.17;;;2.97;;
70667;SDS011;58242;51.250;-1.118;2024-02-15T08:18:47;3.03;;;2.92;;
70667;SDS011;58242;51.250;-1.118;2024-02-15T08:21:17;2.92;;;2.72;;
70667;SDS011;58242;51.250;-1.118;2024-02-15T08:23:42;2.65;;;2.55;;
70667;SDS011;58242;51.250;-1.118;2024-02-15T08:26:07;2.88;;;2.78;;
70667;SDS011;58242;51.250;-1.118;2024-02-15T08:28:36;2.70;;;2.60;;
70667;SDS011;58242;51.250;-1.118;2024-02-15T08:31:01;2.90;;;2.80;;
70667;SDS011;58242;51.250;-1.118;2024-02-15T08:33:27;2.42;;;2.33;;
70667;SDS011;58242;51.250;-1.118;2024-02-15T08:35:53;2.67;;;2.58;;
70667;SDS011;58242;51.250;-1.118;2024-02-15T08:38:20;2.40;;;2.30;;
70667;SDS011;58242;51.250;-1.118;2024-02-15T08:40:46;2.40;;;2.30;;
70667;SDS011;58242;51.250;-1.118;2024-02-15T08:43:12;2.13;;;2.03;;
70667;SDS011;58242;51.250;-1.118;2024-02-15T08:45:38;2.67;;;2.53;;
70667;SDS011;58242;51.250;-1.118;2024-02-15T08:48:04;2.50;;;2.40;;
70667;SDS011;58242;51.250;-1.118;2024-02-15T08:50:30;2.28;;;2.17;;
70667;SDS011;58242;51.250;-1.118;2024-02-15T08:52:55;2.30;;;2.20;;
70667;SDS011;58242;51.250;-1.118;2024-02-15T08:55:21;2.40;;;2.30;;
70667;SDS011;58242;51.250;-1.118;2024-02-15T08:57:51;2.95;;;2.75;;
70667;SDS011;58242;51.250;-1.118;2024-02-15T09:00:18;2.47;;;2.38;;
70667;SDS011;58242;51.250;-1.118;2024-02-15T09:02:43;3.00;;;2.80;;
70667;SDS011;58242;51.250;-1.118;2024-02-15T09:05:09;2.92;;;2.72;;
70667;SDS011;58242;51.250;-1.118;2024-02-15T09:07:34;2.53;;;2.42;;
70667;SDS011;58242;51.250;-1.118;2024-02-15T09:10:04;2.55;;;2.45;;
70667;SDS011;58242;51.250;-1.118;2024-02-15T09:12:32;2.20;;;2.10;;
70667;SDS011;58242;51.250;-1.118;2024-02-15T09:14:57;2.95;;;2.75;;
70667;SDS011;58242;51.250;-1.118;2024-02-15T09:17:23;2.15;;;2.05;;
70667;SDS011;58242;51.250;-1.118;2024-02-15T09:19:48;2.65;;;2.53;;
70667;SDS011;58242;51.250;-1.118;2024-02-15T09:22:14;2.33;;;2.17;;
70667;SDS011;58242;51.250;-1.118;2024-02-15T09:24:40;2.47;;;2.28;;
70667;SDS011;58242;51.250;-1.118;2024-02-15T09:27:07;2.15;;;2.05;;
70667;SDS011;58242;51.250;-1.118;2024-02-15T09:29:32;2.33;;;2.22;;
70667;SDS011;58242;51.250;-1.118;2024-02-15T09:31:58;2.30;;;2.20;;
70667;SDS011;58242;51.250;-1.118;2024-02-15T09:34:27;2.45;;;2.35;;
70667;SDS011;58242;51.250;-1.118;2024-02-15T09:36:52;2.28;;;2.15;;
70667;SDS011;58242;51.250;-1.118;2024-02-15T09:39:17;2.53;;;2.40;;
70667;SDS011;58242;51.250;-1.118;2024-02-15T09:41:43;2.25;;;2.15;;
70667;SDS011;58242;51.250;-1.118;2024-02-15T09:44:08;2.45;;;2.30;;
70667;SDS011;58242;51.250;-1.118;2024-02-15T09:46:35;2.80;;;2.60;;
70667;SDS011;58242;51.250;-1.118;2024-02-15T09:49:01;2.65;;;2.45;;
70667;SDS011;58242;51.250;-1.118;2024-02-15T09:51:28;2.72;;;2.63;;
70667;SDS011;58242;51.250;-1.118;2024-02-15T09:53:56;3.25;;;3.05;;
70667;SDS011;58242;51.250;-1.118;2024-02-15T09:56:23;3.00;;;2.80;;
70667;SDS011;58242;51.250;-1.118;2024-02-15T09:58:51;2.70;;;2.60;;
70667;SDS011;58242;51.250;-1.118;2024-02-15T10:01:16;2.85;;;2.72;;
70667;SDS011;58242;51.250;-1.118;2024-02-15T10:03:45;2.97;;;2.78;;
70667;SDS011;58242;51.250;-1.118;2024-02-15T10:06:16;3.40;;;3.20;;
70667;SDS011;58242;51.250;-1.118;2024-02-15T10:08:43;3.13;;;2.92;;
70667;SDS011;58242;51.250;-1.118;2024-02-15T10:11:09;3.40;;;3.20;;
70667;SDS011;58242;51.250;-1.118;2024-02-15T10:13:35;3.45;;;3.25;;
70667;SDS011;58242;51.250;-1.118;2024-02-15T10:16:13;3.60;;;3.40;;
70667;SDS011;58242;51.250;-1.118;2024-02-15T10:18:43;3.30;;;3.10;;
70667;SDS011;58242;51.250;-1.118;2024-02-15T10:21:24;3.92;;;3.63;;
70667;SDS011;58242;51.250;-1.118;2024-02-15T10:24:06;2.70;;;2.50;;
70667;SDS011;58242;51.250;-1.118;2024-02-15T10:26:33;2.75;;;2.65;;
70667;SDS011;58242;51.250;-1.118;2024-02-15T10:29:10;3.28;;;3.08;;
70667;SDS011;58242;51.250;-1.118;2024-02-15T10:31:37;3.10;;;2.90;;
70667;SDS011;58242;51.250;-1.118;2024-02-15T10:34:06;3.05;;;2.22;;
70667;SDS011;58242;51.250;-1.118;2024-02-15T10:36:33;2.70;;;2.60;;
70667;SDS011;58242;51.250;-1.118;2024-02-15T10:39:15;2.38;;;2.28;;
70667;SDS011;58242;51.250;-1.118;2024-02-15T10:41:51;2.47;;;2.38;;
70667;SDS011;58242;51.250;-1.118;2024-02-15T10:44:20;2.53;;;2.42;;
70667;SDS011;58242;51.250;-1.118;2024-02-15T10:46:47;2.40;;;2.22;;
70667;SDS011;58242;51.250;-1.118;2024-02-15T10:49:20;2.60;;;2.45;;
70667;SDS011;58242;51.250;-1.118;2024-02-15T10:51:56;2.95;;;2.80;;
70667;SDS011;58242;51.250;-1.118;2024-02-15T10:55:08;2.60;;;2.50;;
70667;SDS011;58242;51.250;-1.118;2024-02-15T10:57:12;3.25;;;3.05;;
70667;SDS011;58242;51.250;-1.118;2024-02-15T10:59:39;2.28;;;2.17;;
70667;SDS011;58242;51.250;-1.118;2024-02-15T11:02:23;2.70;;;2.50;;
70667;SDS011;58242;51.250;-1.118;2024-02-15T11:04:53;2.50;;;2.40;;
70667;SDS011;58242;51.250;-1.118;2024-02-15T11:07:23;3.55;;;3.30;;
70667;SDS011;58242;51.250;-1.118;2024-02-15T11:09:51;2.40;;;2.30;;
70667;SDS011;58242;51.250;-1.118;2024-02-15T11:12:17;2.55;;;2.45;;
70667;SDS011;58242;51.250;-1.118;2024-02-15T11:14:46;3.10;;;3.00;;
70667;SDS011;58242;51.250;-1.118;2024-02-15T11:17:11;2.50;;;2.40;;
70667;SDS011;58242;51.250;-1.118;2024-02-15T11:20:05;2.65;;;2.47;;
70667;SDS011;58242;51.250;-1.118;2024-02-15T11:22:34;2.70;;;2.53;;
70667;SDS011;58242;51.250;-1.118;2024-02-15T11:25:07;2.65;;;2.53;;
70667;SDS011;58242;51.250;-1.118;2024-02-15T11:27:42;3.03;;;2.72;;
70667;SDS011;58242;51.250;-1.118;2024-02-15T11:30:07;2.10;;;2.00;;
70667;SDS011;58242;51.250;-1.118;2024-02-15T11:32:44;2.40;;;2.20;;
70667;SDS011;58242;51.250;-1.118;2024-02-15T11:35:11;2.50;;;2.40;;
70667;SDS011;58242;51.250;-1.118;2024-02-15T11:40:12;2.40;;;2.30;;
70667;SDS011;58242;51.250;-1.118;2024-02-15T11:42:38;2.17;;;2.08;;
70667;SDS011;58242;51.250;-1.118;2024-02-15T11:45:07;2.53;;;2.42;;
70667;SDS011;58242;51.250;-1.118;2024-02-15T11:47:33;2.67;;;2.53;;
70667;SDS011;58242;51.250;-1.118;2024-02-15T11:50:02;2.88;;;2.67;;
70667;SDS011;58242;51.250;-1.118;2024-02-15T11:52:28;2.42;;;2.33;;
70667;SDS011;58242;51.250;-1.118;2024-02-15T11:54:53;2.67;;;2.58;;
70667;SDS011;58242;51.250;-1.118;2024-02-15T11:57:28;2.53;;;2.42;;
70667;SDS011;58242;51.250;-1.118;2024-02-15T12:00:02;2.55;;;2.35;;
70667;SDS011;58242;51.250;-1.118;2024-02-15T12:02:46;2.80;;;2.60;;
70667;SDS011;58242;51.250;-1.118;2024-02-15T12:05:30;2.85;;;2.67;;
70667;SDS011;58242;51.250;-1.118;2024-02-15T12:08:14;3.17;;;2.88;;
70667;SDS011;58242;51.250;-1.118;2024-02-15T12:10:59;2.97;;;2.78;;
70667;SDS011;58242;51.250;-1.118;2024-02-15T12:13:43;2.72;;;2.60;;
70667;SDS011;58242;51.250;-1.118;2024-02-15T12:16:27;2.80;;;2.60;;
70667;SDS011;58242;51.250;-1.118;2024-02-15T12:19:11;3.28;;;2.97;;
70667;SDS011;58242;51.250;-1.118;2024-02-15T12:21:36;2.40;;;2.30;;
70667;SDS011;58242;51.250;-1.118;2024-02-15T12:24:06;2.17;;;2.08;;
70667;SDS011;58242;51.250;-1.118;2024-02-15T12:26:32;2.70;;;2.28;;
70667;SDS011;58242;51.250;-1.118;2024-02-15T12:28:59;2.17;;;2.05;;
70667;SDS011;58242;51.250;-1.118;2024-02-15T12:31:26;2.20;;;2.10;;
70667;SDS011;58242;51.250;-1.118;2024-02-15T12:36:31;2.67;;;2.30;;
70667;SDS011;58242;51.250;-1.118;2024-02-15T12:39:01;2.97;;;2.78;;
70667;SDS011;58242;51.250;-1.118;2024-02-15T12:41:35;2.45;;;2.35;;
70667;SDS011;58242;51.250;-1.118;2024-02-15T12:44:01;3.00;;;2.80;;
70667;SDS011;58242;51.250;-1.118;2024-02-15T12:46:28;3.05;;;2.85;;
70667;SDS011;58242;51.250;-1.118;2024-02-15T12:49:11;3.30;;;3.10;;
70667;SDS011;58242;51.250;-1.118;2024-02-15T12:51:53;2.92;;;2.83;;
70667;SDS011;58242;51.250;-1.118;2024-02-15T12:54:20;2.85;;;2.67;;
70667;SDS011;58242;51.250;-1.118;2024-02-15T12:56:49;3.42;;;3.10;;
70667;SDS011;58242;51.250;-1.118;2024-02-15T13:01:41;3.50;;;3.20;;
70667;SDS011;58242;51.250;-1.118;2024-02-15T13:04:07;3.40;;;3.10;;
70667;SDS011;58242;51.250;-1.118;2024-02-15T13:06:33;3.65;;;3.33;;
70667;SDS011;58242;51.250;-1.118;2024-02-15T13:09:01;3.60;;;3.40;;
70667;SDS011;58242;51.250;-1.118;2024-02-15T13:13:56;3.85;;;3.50;;
70667;SDS011;58242;51.250;-1.118;2024-02-15T13:16:21;3.38;;;3.17;;
70667;SDS011;58242;51.250;-1.118;2024-02-15T13:18:48;3.53;;;3.20;;
70667;SDS011;58242;51.250;-1.118;2024-02-15T13:21:14;3.63;;;3.42;;
70667;SDS011;58242;51.250;-1.118;2024-02-15T13:23:39;3.38;;;3.17;;
70667;SDS011;58242;51.250;-1.118;2024-02-15T13:26:04;3.60;;;3.40;;
70667;SDS011;58242;51.250;-1.118;2024-02-15T13:28:30;3.70;;;3.40;;
70667;SDS011;58242;51.250;-1.118;2024-02-15T13:30:55;3.22;;;3.03;;
70667;SDS011;58242;51.250;-1.118;2024-02-15T13:33:21;3.10;;;2.90;;
70667;SDS011;58242;51.250;-1.118;2024-02-15T13:35:47;3.45;;;3.25;;
70667;SDS011;58242;51.250;-1.118;2024-02-15T13:38:14;3.45;;;3.15;;
70667;SDS011;58242;51.250;-1.118;2024-02-15T13:40:47;3.70;;;3.50;;
70667;SDS011;58242;51.250;-1.118;2024-02-15T13:43:16;3.20;;;3.00;;
70667;SDS011;58242;51.250;-1.118;2024-02-15T13:45:42;3.20;;;3.10;;
70667;SDS011;58242;51.250;-1.118;2024-02-15T13:48:09;2.92;;;2.72;;
70667;SDS011;58242;51.250;-1.118;2024-02-15T13:50:38;2.92;;;2.72;;
70667;SDS011;58242;51.250;-1.118;2024-02-15T13:53:04;2.65;;;2.53;;
70667;SDS011;58242;51.250;-1.118;2024-02-15T13:55:30;2.97;;;2.78;;
70667;SDS011;58242;51.250;-1.118;2024-02-15T13:57:56;2.95;;;2.75;;
70667;SDS011;58242;51.250;-1.118;2024-02-15T14:00:22;2.83;;;2.63;;
70667;SDS011;58242;51.250;-1.118;2024-02-15T14:02:49;3.33;;;3.13;;
70667;SDS011;58242;51.250;-1.118;2024-02-15T14:05:14;3.33;;;3.13;;
70667;SDS011;58242;51.250;-1.118;2024-02-15T14:07:45;3.28;;;3.08;;
70667;SDS011;58242;51.250;-1.118;2024-02-15T14:10:23;2.50;;;2.40;;
70667;SDS011;58242;51.250;-1.118;2024-02-15T14:12:50;3.05;;;2.80;;
70667;SDS011;58242;51.250;-1.118;2024-02-15T14:15:30;3.00;;;2.78;;
70667;SDS011;58242;51.250;-1.118;2024-02-15T14:20:26;2.60;;;2.50;;
70667;SDS011;58242;51.250;-1.118;2024-02-15T14:22:51;2.88;;;2.67;;
70667;SDS011;58242;51.250;-1.118;2024-02-15T14:25:23;2.85;;;2.65;;
70667;SDS011;58242;51.250;-1.118;2024-02-15T14:27:55;2.90;;;2.80;;
70667;SDS011;58242;51.250;-1.118;2024-02-15T14:30:21;3.30;;;3.00;;
70667;SDS011;58242;51.250;-1.118;2024-02-15T14:33:05;2.90;;;2.70;;
70667;SDS011;58242;51.250;-1.118;2024-02-15T14:35:36;2.70;;;2.50;;
70667;SDS011;58242;51.250;-1.118;2024-02-15T14:38:07;3.13;;;2.92;;
70667;SDS011;58242;51.250;-1.118;2024-02-15T14:40:36;3.10;;;2.90;;
70667;SDS011;58242;51.250;-1.118;2024-02-15T14:43:04;2.97;;;2.77;;
70667;SDS011;58242;51.250;-1.118;2024-02-15T14:45:30;3.20;;;3.00;;
70667;SDS011;58242;51.250;-1.118;2024-02-15T14:47:58;2.95;;;2.80;;
70667;SDS011;58242;51.250;-1.118;2024-02-15T14:50:23;3.60;;;3.40;;
70667;SDS011;58242;51.250;-1.118;2024-02-15T14:52:49;3.47;;;3.13;;
70667;SDS011;58242;51.250;-1.118;2024-02-15T14:55:14;3.30;;;3.00;;